sensor_id;sensor_type;location;lat;lon;timestamp;temperature;humidity
16479;DHT22;8350;52.316;10.530;2024-03-02T00:00:33;7.20;99.90
16479;DHT22;8350;52.316;10.530;2024-03-02T00:03:07;7.20;99.90
16479;DHT22;8350;52.316;10.530;2024-03-02T00:05:35;7.30;99.90
16479;DHT22;8350;52.316;10.530;2024-03-02T00:08:05;7.40;99.90
16479;DHT22;8350;52.316;10.530;2024-03-02T00:10:36;7.50;99.90
16479;DHT22;8350;52.316;10.530;2024-03-02T00:13:05;7.50;99.90
16479;DHT22;8350;52.316;10.530;2024-03-02T00:15:46;7.60;99.90
16479;DHT22;8350;52.316;10.530;2024-03-02T00:18:14;7.60;99.90
16479;DHT22;8350;52.316;10.530;2024-03-02T00:20:45;7.60;99.90
16479;DHT22;8350;52.316;10.530;2024-03-02T00:23:16;7.60;99.90
16479;DHT22;8350;52.316;10.530;2024-03-02T00:25:46;7.60;99.90
16479;DHT22;8350;52.316;10.530;2024-03-02T00:28:16;7.60;99.90
16479;DHT22;8350;52.316;10.530;2024-03-02T00:30:52;7.50;99.90
16479;DHT22;8350;52.316;10.530;2024-03-02T00:33:22;7.50;99.90
16479;DHT22;8350;52.316;10.530;2024-03-02T00:35:49;7.50;99.90
16479;DHT22;8350;52.316;10.530;2024-03-02T00:38:18;7.50;99.90
16479;DHT22;8350;52.316;10.530;2024-03-02T00:40:45;7.50;99.90
16479;DHT22;8350;52.316;10.530;2024-03-02T00:43:37;7.50;99.90
16479;DHT22;8350;52.316;10.530;2024-03-02T00:46:05;7.40;99.90
16479;DHT22;8350;52.316;10.530;2024-03-02T00:48:33;7.20;99.90
16479;DHT22;8350;52.316;10.530;2024-03-02T00:51:01;7.10;99.90
16479;DHT22;8350;52.316;10.530;2024-03-02T00:53:31;7.00;99.90
16479;DHT22;8350;52.316;10.530;2024-03-02T00:55:59;6.90;99.90
16479;DHT22;8350;52.316;10.530;2024-03-02T00:58:26;6.90;99.90
16479;DHT22;8350;52.316;10.530;2024-03-02T01:00:53;6.90;99.90
16479;DHT22;8350;52.316;10.530;2024-03-02T01:03:20;6.80;99.90
16479;DHT22;8350;52.316;10.530;2024-03-02T01:05:46;6.80;99.90
16479;DHT22;8350;52.316;10.530;2024-03-02T01:08:13;6.70;99.90
16479;DHT22;8350;52.316;10.530;2024-03-02T01:10:41;6.60;99.90
16479;DHT22;8350;52.316;10.530;2024-03-02T01:13:08;6.60;99.90
16479;DHT22;8350;52.316;10.530;2024-03-02T01:15:35;6.50;99.90
16479;DHT22;8350;52.316;10.530;2024-03-02T01:18:02;6.50;99.90
16479;DHT22;8350;52.316;10.530;2024-03-02T01:20:29;6.50;99.90
16479;DHT22;8350;52.316;10.530;2024-03-02T01:22:58;6.50;99.90
16479;DHT22;8350;52.316;10.530;2024-03-02T01:25:25;6.50;99.90
16479;DHT22;8350;52.316;10.530;2024-03-02T01:27:53;6.50;99.90
16479;DHT22;8350;52.316;10.530;2024-03-02T01:30:20;6.40;99.90
16479;DHT22;8350;52.316;10.530;2024-03-02T01:32:47;6.40;99.90
16479;DHT22;8350;52.316;10.530;2024-03-02T01:35:14;6.40;99.90
16479;DHT22;8350;52.316;10.530;2024-03-02T01:37:41;6.40;99.90
16479;DHT22;8350;52.316;10.530;2024-03-02T01:40:09;6.40;99.90
16479;DHT22;8350;52.316;10.530;2024-03-02T01:42:37;6.40;99.90
16479;DHT22;8350;52.316;10.530;2024-03-02T01:45:06;6.30;99.90
16479;DHT22;8350;52.316;10.530;2024-03-02T01:47:34;6.30;99.90
16479;DHT22;8350;52.316;10.530;2024-03-02T01:50:02;6.30;99.90
16479;DHT22;8350;52.316;10.530;2024-03-02T01:52:29;6.30;99.90
16479;DHT22;8350;52.316;10.530;2024-03-02T01:54:56;6.30;99.90
16479;DHT22;8350;52.316;10.530;2024-03-02T01:57:25;6.30;99.90
16479;DHT22;8350;52.316;10.530;2024-03-02T01:59:51;6.30;99.90
16479;DHT22;8350;52.316;10.530;2024-03-02T02:02:20;6.30;99.90
16479;DHT22;8350;52.316;10.530;2024-03-02T02:04:47;6.30;99.90
16479;DHT22;8350;52.316;10.530;2024-03-02T02:07:15;6.30;99.90
16479;DHT22;8350;52.316;10.530;2024-03-02T02:09:44;6.30;99.90
16479;DHT22;8350;52.316;10.530;2024-03-02T02:12:11;6.40;99.90
16479;DHT22;8350;52.316;10.530;2024-03-02T02:14:38;6.40;99.90
16479;DHT22;8350;52.316;10.530;2024-03-02T02:17:05;6.40;99.90
16479;DHT22;8350;52.316;10.530;2024-03-02T02:19:35;6.50;99.90
16479;DHT22;8350;52.316;10.530;2024-03-02T02:22:04;6.50;99.90
16479;DHT22;8350;52.316;10.530;2024-03-02T02:24:31;6.50;99.90
16479;DHT22;8350;52.316;10.530;2024-03-02T02:26:57;6.50;99.90
16479;DHT22;8350;52.316;10.530;2024-03-02T02:29:24;6.50;99.90
16479;DHT22;8350;52.316;10.530;2024-03-02T02:31:51;6.60;99.90
16479;DHT22;8350;52.316;10.530;2024-03-02T02:34:19;6.60;99.90
16479;DHT22;8350;52.316;10.530;2024-03-02T02:36:46;6.60;99.90
16479;DHT22;8350;52.316;10.530;2024-03-02T02:39:16;6.60;99.90
16479;DHT22;8350;52.316;10.530;2024-03-02T02:41:46;6.60;99.90
16479;DHT22;8350;52.316;10.530;2024-03-02T02:44:13;6.60;99.90
16479;DHT22;8350;52.316;10.530;2024-03-02T02:46:40;6.60;99.90
16479;DHT22;8350;52.316;10.530;2024-03-02T02:49:07;6.50;99.90
16479;DHT22;8350;52.316;10.530;2024-03-02T02:51:37;6.50;99.90
16479;DHT22;8350;52.316;10.530;2024-03-02T02:54:06;6.40;99.90
16479;DHT22;8350;52.316;10.530;2024-03-02T02:56:34;6.50;99.90
16479;DHT22;8350;52.316;10.530;2024-03-02T02:59:03;6.60;99.90
16479;DHT22;8350;52.316;10.530;2024-03-02T03:01:30;6.70;99.90
16479;DHT22;8350;52.316;10.530;2024-03-02T03:03:57;6.70;99.90
16479;DHT22;8350;52.316;10.530;2024-03-02T03:06:26;6.80;99.90
16479;DHT22;8350;52.316;10.530;2024-03-02T03:08:53;6.80;99.90
16479;DHT22;8350;52.316;10.530;2024-03-02T03:11:19;6.90;99.90
16479;DHT22;8350;52.316;10.530;2024-03-02T03:13:49;6.90;99.90
16479;DHT22;8350;52.316;10.530;2024-03-02T03:16:19;7.00;99.90
16479;DHT22;8350;52.316;10.530;2024-03-02T03:18:45;7.10;99.90
16479;DHT22;8350;52.316;10.530;2024-03-02T03:21:12;7.20;99.90
16479;DHT22;8350;52.316;10.530;2024-03-02T03:23:42;7.20;99.90
16479;DHT22;8350;52.316;10.530;2024-03-02T03:26:09;7.20;99.90
16479;DHT22;8350;52.316;10.530;2024-03-02T03:28:36;7.20;99.90
16479;DHT22;8350;52.316;10.530;2024-03-02T03:31:04;7.20;99.90
16479;DHT22;8350;52.316;10.530;2024-03-02T03:33:31;7.20;99.90
16479;DHT22;8350;52.316;10.530;2024-03-02T03:35:58;7.20;99.90
16479;DHT22;8350;52.316;10.530;2024-03-02T03:38:25;7.30;99.90
16479;DHT22;8350;52.316;10.530;2024-03-02T03:40:52;7.30;99.90
16479;DHT22;8350;52.316;10.530;2024-03-02T03:43:19;7.30;99.90
16479;DHT22;8350;52.316;10.530;2024-03-02T03:45:46;7.40;99.90
16479;DHT22;8350;52.316;10.530;2024-03-02T03:48:14;7.40;99.90
16479;DHT22;8350;52.316;10.530;2024-03-02T03:50:41;7.40;99.90
16479;DHT22;8350;52.316;10.530;2024-03-02T03:53:07;7.40;99.90
16479;DHT22;8350;52.316;10.530;2024-03-02T03:55:34;7.40;99.90
16479;DHT22;8350;52.316;10.530;2024-03-02T03:58:01;7.40;99.90
16479;DHT22;8350;52.316;10.530;2024-03-02T04:00:28;7.40;99.90
16479;DHT22;8350;52.316;10.530;2024-03-02T04:02:55;7.40;99.90
16479;DHT22;8350;52.316;10.530;2024-03-02T04:05:23;7.40;99.90
16479;DHT22;8350;52.316;10.530;2024-03-02T04:07:50;7.50;99.90
16479;DHT22;8350;52.316;10.530;2024-03-02T04:10:17;7.50;99.90
16479;DHT22;8350;52.316;10.530;2024-03-02T04:12:46;7.50;99.90
16479;DHT22;8350;52.316;10.530;2024-03-02T04:15:13;7.50;99.90
16479;DHT22;8350;52.316;10.530;2024-03-02T04:17:40;7.50;99.90
16479;DHT22;8350;52.316;10.530;2024-03-02T04:20:07;7.50;99.90
16479;DHT22;8350;52.316;10.530;2024-03-02T04:22:35;7.50;99.90
16479;DHT22;8350;52.316;10.530;2024-03-02T04:25:02;7.50;99.90
16479;DHT22;8350;52.316;10.530;2024-03-02T04:27:31;7.50;99.90
16479;DHT22;8350;52.316;10.530;2024-03-02T04:29:58;7.50;99.90
16479;DHT22;8350;52.316;10.530;2024-03-02T04:32:28;7.40;99.90
16479;DHT22;8350;52.316;10.530;2024-03-02T04:34:55;7.50;99.90
16479;DHT22;8350;52.316;10.530;2024-03-02T04:37:22;7.40;99.90
16479;DHT22;8350;52.316;10.530;2024-03-02T04:39:50;7.40;99.90
16479;DHT22;8350;52.316;10.530;2024-03-02T04:42:17;7.40;99.90
16479;DHT22;8350;52.316;10.530;2024-03-02T04:44:44;7.40;99.90
16479;DHT22;8350;52.316;10.530;2024-03-02T04:47:11;7.40;99.90
16479;DHT22;8350;52.316;10.530;2024-03-02T04:49:38;7.40;99.90
16479;DHT22;8350;52.316;10.530;2024-03-02T04:52:05;7.30;99.90
16479;DHT22;8350;52.316;10.530;2024-03-02T04:54:31;7.20;99.90
16479;DHT22;8350;52.316;10.530;2024-03-02T04:57:02;7.10;99.90
16479;DHT22;8350;52.316;10.530;2024-03-02T04:59:28;6.90;99.90
16479;DHT22;8350;52.316;10.530;2024-03-02T05:01:54;6.80;99.90
16479;DHT22;8350;52.316;10.530;2024-03-02T05:04:21;6.70;99.90
16479;DHT22;8350;52.316;10.530;2024-03-02T05:06:48;6.70;99.90
16479;DHT22;8350;52.316;10.530;2024-03-02T05:09:18;6.70;99.90
16479;DHT22;8350;52.316;10.530;2024-03-02T05:11:45;6.60;99.90
16479;DHT22;8350;52.316;10.530;2024-03-02T05:14:42;6.50;99.90
16479;DHT22;8350;52.316;10.530;2024-03-02T05:17:09;6.20;99.90
16479;DHT22;8350;52.316;10.530;2024-03-02T05:19:36;6.00;99.90
16479;DHT22;8350;52.316;10.530;2024-03-02T05:22:04;5.90;99.90
16479;DHT22;8350;52.316;10.530;2024-03-02T05:24:31;5.90;99.90
16479;DHT22;8350;52.316;10.530;2024-03-02T05:26:58;5.90;99.90
16479;DHT22;8350;52.316;10.530;2024-03-02T05:29:25;5.90;99.90
16479;DHT22;8350;52.316;10.530;2024-03-02T05:31:53;5.70;99.90
16479;DHT22;8350;52.316;10.530;2024-03-02T05:34:20;5.60;99.90
16479;DHT22;8350;52.316;10.530;2024-03-02T05:36:46;5.70;99.90
16479;DHT22;8350;52.316;10.530;2024-03-02T05:39:13;5.60;99.90
16479;DHT22;8350;52.316;10.530;2024-03-02T05:41:41;5.60;99.90
16479;DHT22;8350;52.316;10.530;2024-03-02T05:44:08;5.50;99.90
16479;DHT22;8350;52.316;10.530;2024-03-02T05:46:35;5.50;99.90
16479;DHT22;8350;52.316;10.530;2024-03-02T05:49:03;5.40;99.90
16479;DHT22;8350;52.316;10.530;2024-03-02T05:51:29;5.40;99.90
16479;DHT22;8350;52.316;10.530;2024-03-02T05:53:56;5.40;99.90
16479;DHT22;8350;52.316;10.530;2024-03-02T05:56:23;5.30;99.90
16479;DHT22;8350;52.316;10.530;2024-03-02T05:58:50;5.20;99.90
16479;DHT22;8350;52.316;10.530;2024-03-02T06:01:32;5.00;99.90
16479;DHT22;8350;52.316;10.530;2024-03-02T06:04:03;4.90;99.90
16479;DHT22;8350;52.316;10.530;2024-03-02T06:06:30;4.80;99.90
16479;DHT22;8350;52.316;10.530;2024-03-02T06:08:58;4.80;99.90
16479;DHT22;8350;52.316;10.530;2024-03-02T06:11:24;4.80;99.90
16479;DHT22;8350;52.316;10.530;2024-03-02T06:13:51;4.80;99.90
16479;DHT22;8350;52.316;10.530;2024-03-02T06:16:18;4.70;99.90
16479;DHT22;8350;52.316;10.530;2024-03-02T06:18:45;4.70;99.90
16479;DHT22;8350;52.316;10.530;2024-03-02T06:21:13;4.70;99.90
16479;DHT22;8350;52.316;10.530;2024-03-02T06:23:40;4.80;99.90
16479;DHT22;8350;52.316;10.530;2024-03-02T06:26:09;4.90;99.90
16479;DHT22;8350;52.316;10.530;2024-03-02T06:28:35;4.90;99.90
16479;DHT22;8350;52.316;10.530;2024-03-02T06:31:03;5.00;99.90
16479;DHT22;8350;52.316;10.530;2024-03-02T06:33:30;5.10;99.90
16479;DHT22;8350;52.316;10.530;2024-03-02T06:35:56;5.40;99.90
16479;DHT22;8350;52.316;10.530;2024-03-02T06:38:25;5.50;99.90
16479;DHT22;8350;52.316;10.530;2024-03-02T06:40:59;5.60;99.90
16479;DHT22;8350;52.316;10.530;2024-03-02T06:43:28;5.70;99.90
16479;DHT22;8350;52.316;10.530;2024-03-02T06:45:55;5.80;99.90
16479;DHT22;8350;52.316;10.530;2024-03-02T06:48:21;5.80;99.90
16479;DHT22;8350;52.316;10.530;2024-03-02T06:50:50;5.90;99.90
16479;DHT22;8350;52.316;10.530;2024-03-02T06:53:17;5.90;99.90
16479;DHT22;8350;52.316;10.530;2024-03-02T06:55:46;6.10;99.90
16479;DHT22;8350;52.316;10.530;2024-03-02T06:58:13;6.00;99.90
16479;DHT22;8350;52.316;10.530;2024-03-02T07:00:41;6.00;99.90
16479;DHT22;8350;52.316;10.530;2024-03-02T07:03:11;6.00;99.90
16479;DHT22;8350;52.316;10.530;2024-03-02T07:05:38;6.00;99.90
16479;DHT22;8350;52.316;10.530;2024-03-02T07:08:05;6.10;99.90
16479;DHT22;8350;52.316;10.530;2024-03-02T07:10:32;6.20;99.90
16479;DHT22;8350;52.316;10.530;2024-03-02T07:13:00;6.20;99.90
16479;DHT22;8350;52.316;10.530;2024-03-02T07:15:27;6.30;99.90
16479;DHT22;8350;52.316;10.530;2024-03-02T07:18:12;6.30;99.90
16479;DHT22;8350;52.316;10.530;2024-03-02T07:20:41;6.30;99.90
16479;DHT22;8350;52.316;10.530;2024-03-02T07:23:08;6.40;99.90
16479;DHT22;8350;52.316;10.530;2024-03-02T07:25:35;6.50;99.90
16479;DHT22;8350;52.316;10.530;2024-03-02T07:28:03;6.50;99.90
16479;DHT22;8350;52.316;10.530;2024-03-02T07:30:30;6.50;99.90
16479;DHT22;8350;52.316;10.530;2024-03-02T07:32:57;6.60;99.90
16479;DHT22;8350;52.316;10.530;2024-03-02T07:35:24;6.70;99.90
16479;DHT22;8350;52.316;10.530;2024-03-02T07:37:53;6.70;99.90
16479;DHT22;8350;52.316;10.530;2024-03-02T07:40:19;6.80;99.90
16479;DHT22;8350;52.316;10.530;2024-03-02T07:42:46;6.90;99.90
16479;DHT22;8350;52.316;10.530;2024-03-02T07:45:15;7.00;99.90
16479;DHT22;8350;52.316;10.530;2024-03-02T07:47:42;7.00;99.90
16479;DHT22;8350;52.316;10.530;2024-03-02T07:50:09;7.10;99.90
16479;DHT22;8350;52.316;10.530;2024-03-02T07:52:42;7.20;99.90
16479;DHT22;8350;52.316;10.530;2024-03-02T07:55:11;7.30;99.90
16479;DHT22;8350;52.316;10.530;2024-03-02T07:57:38;7.30;99.90
16479;DHT22;8350;52.316;10.530;2024-03-02T08:00:06;7.40;99.90
16479;DHT22;8350;52.316;10.530;2024-03-02T08:02:36;7.50;99.90
16479;DHT22;8350;52.316;10.530;2024-03-02T08:05:03;7.70;99.90
16479;DHT22;8350;52.316;10.530;2024-03-02T08:07:30;7.80;99.90
16479;DHT22;8350;52.316;10.530;2024-03-02T08:09:56;8.00;99.90
16479;DHT22;8350;52.316;10.530;2024-03-02T08:12:23;8.10;99.90
16479;DHT22;8350;52.316;10.530;2024-03-02T08:14:50;8.20;99.90
16479;DHT22;8350;52.316;10.530;2024-03-02T08:17:17;8.50;99.90
16479;DHT22;8350;52.316;10.530;2024-03-02T08:19:45;8.60;99.90
16479;DHT22;8350;52.316;10.530;2024-03-02T08:22:16;8.80;99.90
16479;DHT22;8350;52.316;10.530;2024-03-02T08:24:43;9.00;99.90
16479;DHT22;8350;52.316;10.530;2024-03-02T08:27:10;9.20;99.90
16479;DHT22;8350;52.316;10.530;2024-03-02T08:29:37;9.30;99.90
16479;DHT22;8350;52.316;10.530;2024-03-02T08:32:06;9.50;99.90
16479;DHT22;8350;52.316;10.530;2024-03-02T08:34:33;9.70;99.90
16479;DHT22;8350;52.316;10.530;2024-03-02T08:37:03;9.70;99.90
16479;DHT22;8350;52.316;10.530;2024-03-02T08:39:30;9.80;99.90
16479;DHT22;8350;52.316;10.530;2024-03-02T08:41:57;9.90;99.90
16479;DHT22;8350;52.316;10.530;2024-03-02T08:44:24;9.90;99.90
16479;DHT22;8350;52.316;10.530;2024-03-02T08:46:51;10.00;99.90
16479;DHT22;8350;52.316;10.530;2024-03-02T08:49:18;10.00;99.90
16479;DHT22;8350;52.316;10.530;2024-03-02T08:51:47;10.00;99.90
16479;DHT22;8350;52.316;10.530;2024-03-02T08:54:21;10.10;99.90
16479;DHT22;8350;52.316;10.530;2024-03-02T08:56:48;10.20;99.90
16479;DHT22;8350;52.316;10.530;2024-03-02T08:59:16;10.30;99.90
16479;DHT22;8350;52.316;10.530;2024-03-02T09:01:47;10.50;99.90
16479;DHT22;8350;52.316;10.530;2024-03-02T09:04:14;10.60;99.90
16479;DHT22;8350;52.316;10.530;2024-03-02T09:06:40;10.60;99.90
16479;DHT22;8350;52.316;10.530;2024-03-02T09:09:08;10.60;99.90
16479;DHT22;8350;52.316;10.530;2024-03-02T09:11:36;10.70;99.90
16479;DHT22;8350;52.316;10.530;2024-03-02T09:14:03;10.70;99.90
16479;DHT22;8350;52.316;10.530;2024-03-02T09:16:30;10.80;99.90
16479;DHT22;8350;52.316;10.530;2024-03-02T09:19:00;10.90;99.90
16479;DHT22;8350;52.316;10.530;2024-03-02T09:21:26;10.90;99.90
16479;DHT22;8350;52.316;10.530;2024-03-02T09:23:55;11.00;99.90
16479;DHT22;8350;52.316;10.530;2024-03-02T09:26:22;11.00;99.90
16479;DHT22;8350;52.316;10.530;2024-03-02T09:28:51;11.10;99.90
16479;DHT22;8350;52.316;10.530;2024-03-02T09:31:18;11.20;99.90
16479;DHT22;8350;52.316;10.530;2024-03-02T09:33:45;11.20;99.90
16479;DHT22;8350;52.316;10.530;2024-03-02T09:36:18;11.40;99.90
16479;DHT22;8350;52.316;10.530;2024-03-02T09:38:45;11.40;99.90
16479;DHT22;8350;52.316;10.530;2024-03-02T09:41:14;11.50;99.90
16479;DHT22;8350;52.316;10.530;2024-03-02T09:43:41;11.50;99.90
16479;DHT22;8350;52.316;10.530;2024-03-02T09:46:10;11.60;99.90
16479;DHT22;8350;52.316;10.530;2024-03-02T09:48:37;11.70;99.90
16479;DHT22;8350;52.316;10.530;2024-03-02T09:51:05;11.80;99.90
16479;DHT22;8350;52.316;10.530;2024-03-02T09:53:33;12.00;99.90
16479;DHT22;8350;52.316;10.530;2024-03-02T09:56:02;12.10;99.90
16479;DHT22;8350;52.316;10.530;2024-03-02T09:58:30;12.20;99.90
16479;DHT22;8350;52.316;10.530;2024-03-02T10:00:57;12.40;99.90
16479;DHT22;8350;52.316;10.530;2024-03-02T10:03:29;12.50;99.90
16479;DHT22;8350;52.316;10.530;2024-03-02T10:06:21;12.50;99.90
16479;DHT22;8350;52.316;10.530;2024-03-02T10:08:48;12.50;99.90
16479;DHT22;8350;52.316;10.530;2024-03-02T10:11:28;12.50;99.90
16479;DHT22;8350;52.316;10.530;2024-03-02T10:14:06;12.50;99.90
16479;DHT22;8350;52.316;10.530;2024-03-02T10:16:34;12.60;99.90
16479;DHT22;8350;52.316;10.530;2024-03-02T10:19:17;12.60;99.90
16479;DHT22;8350;52.316;10.530;2024-03-02T10:21:44;12.60;99.90
16479;DHT22;8350;52.316;10.530;2024-03-02T10:24:11;12.50;99.90
16479;DHT22;8350;52.316;10.530;2024-03-02T10:26:38;12.60;99.90
16479;DHT22;8350;52.316;10.530;2024-03-02T10:29:05;12.70;99.90
16479;DHT22;8350;52.316;10.530;2024-03-02T10:31:37;12.80;99.90
16479;DHT22;8350;52.316;10.530;2024-03-02T10:34:07;12.80;99.90
16479;DHT22;8350;52.316;10.530;2024-03-02T10:36:36;12.80;99.90
16479;DHT22;8350;52.316;10.530;2024-03-02T10:39:04;12.90;99.90
16479;DHT22;8350;52.316;10.530;2024-03-02T10:41:33;13.00;99.90
16479;DHT22;8350;52.316;10.530;2024-03-02T10:44:02;12.90;99.90
16479;DHT22;8350;52.316;10.530;2024-03-02T10:46:30;13.00;99.90
16479;DHT22;8350;52.316;10.530;2024-03-02T10:48:58;13.20;99.90
16479;DHT22;8350;52.316;10.530;2024-03-02T10:51:33;13.40;99.90
16479;DHT22;8350;52.316;10.530;2024-03-02T10:54:03;13.40;99.90
16479;DHT22;8350;52.316;10.530;2024-03-02T10:56:32;13.60;99.90
16479;DHT22;8350;52.316;10.530;2024-03-02T10:59:03;13.70;99.90
16479;DHT22;8350;52.316;10.530;2024-03-02T11:01:33;13.80;99.90
16479;DHT22;8350;52.316;10.530;2024-03-02T11:04:04;13.80;99.90
16479;DHT22;8350;52.316;10.530;2024-03-02T11:06:36;13.80;99.90
16479;DHT22;8350;52.316;10.530;2024-03-02T11:09:07;13.80;99.90
16479;DHT22;8350;52.316;10.530;2024-03-02T11:11:37;13.70;99.90
16479;DHT22;8350;52.316;10.530;2024-03-02T11:14:14;13.60;99.90
16479;DHT22;8350;52.316;10.530;2024-03-02T11:16:43;13.70;99.90
16479;DHT22;8350;52.316;10.530;2024-03-02T11:19:12;13.80;99.90
16479;DHT22;8350;52.316;10.530;2024-03-02T11:21:41;13.90;99.90
16479;DHT22;8350;52.316;10.530;2024-03-02T11:24:30;13.90;99.90
16479;DHT22;8350;52.316;10.530;2024-03-02T11:26:59;14.00;99.90
16479;DHT22;8350;52.316;10.530;2024-03-02T11:29:43;14.00;99.90
16479;DHT22;8350;52.316;10.530;2024-03-02T11:32:17;14.00;99.90
16479;DHT22;8350;52.316;10.530;2024-03-02T11:34:49;14.10;99.90
16479;DHT22;8350;52.316;10.530;2024-03-02T11:37:16;13.90;99.90
16479;DHT22;8350;52.316;10.530;2024-03-02T11:39:51;13.90;99.90
16479;DHT22;8350;52.316;10.530;2024-03-02T11:42:18;13.90;99.90
16479;DHT22;8350;52.316;10.530;2024-03-02T11:44:46;13.90;99.90
16479;DHT22;8350;52.316;10.530;2024-03-02T11:47:15;13.90;99.90
16479;DHT22;8350;52.316;10.530;2024-03-02T11:49:43;13.90;99.90
16479;DHT22;8350;52.316;10.530;2024-03-02T11:52:12;13.90;99.90
16479;DHT22;8350;52.316;10.530;2024-03-02T11:54:44;13.90;99.90
16479;DHT22;8350;52.316;10.530;2024-03-02T11:57:19;13.90;99.90
16479;DHT22;8350;52.316;10.530;2024-03-02T11:59:46;13.90;99.90
16479;DHT22;8350;52.316;10.530;2024-03-02T12:02:15;13.90;99.90
16479;DHT22;8350;52.316;10.530;2024-03-02T12:04:43;13.90;99.90
16479;DHT22;8350;52.316;10.530;2024-03-02T12:07:12;13.90;99.90
16479;DHT22;8350;52.316;10.530;2024-03-02T12:09:38;14.00;99.90
16479;DHT22;8350;52.316;10.530;2024-03-02T12:12:06;14.10;99.90
16479;DHT22;8350;52.316;10.530;2024-03-02T12:14:35;14.10;99.90
16479;DHT22;8350;52.316;10.530;2024-03-02T12:17:03;14.10;99.90
16479;DHT22;8350;52.316;10.530;2024-03-02T12:19:31;14.00;99.90
16479;DHT22;8350;52.316;10.530;2024-03-02T12:21:59;14.10;99.90
16479;DHT22;8350;52.316;10.530;2024-03-02T12:24:28;14.20;99.90
16479;DHT22;8350;52.316;10.530;2024-03-02T12:26:55;14.20;99.90
16479;DHT22;8350;52.316;10.530;2024-03-02T12:29:23;14.20;99.90
16479;DHT22;8350;52.316;10.530;2024-03-02T12:31:52;14.40;99.90
16479;DHT22;8350;52.316;10.530;2024-03-02T12:34:21;14.50;99.90
16479;DHT22;8350;52.316;10.530;2024-03-02T12:36:50;14.50;99.90
16479;DHT22;8350;52.316;10.530;2024-03-02T12:39:19;14.60;99.90
16479;DHT22;8350;52.316;10.530;2024-03-02T12:41:47;14.70;99.90
16479;DHT22;8350;52.316;10.530;2024-03-02T12:44:16;14.80;99.90
16479;DHT22;8350;52.316;10.530;2024-03-02T12:46:43;14.80;99.90
16479;DHT22;8350;52.316;10.530;2024-03-02T12:49:12;14.90;99.90
16479;DHT22;8350;52.316;10.530;2024-03-02T12:51:40;14.80;99.90
16479;DHT22;8350;52.316;10.530;2024-03-02T12:54:12;14.80;99.90
16479;DHT22;8350;52.316;10.530;2024-03-02T12:56:41;15.00;99.90
16479;DHT22;8350;52.316;10.530;2024-03-02T12:59:20;15.10;99.90
16479;DHT22;8350;52.316;10.530;2024-03-02T13:01:52;15.40;99.90
16479;DHT22;8350;52.316;10.530;2024-03-02T13:04:27;15.70;99.90
16479;DHT22;8350;52.316;10.530;2024-03-02T13:06:55;15.70;99.90
16479;DHT22;8350;52.316;10.530;2024-03-02T13:09:23;15.80;99.90
16479;DHT22;8350;52.316;10.530;2024-03-02T13:11:53;15.80;99.90
16479;DHT22;8350;52.316;10.530;2024-03-02T13:14:28;15.70;99.90
16479;DHT22;8350;52.316;10.530;2024-03-02T13:16:57;15.70;99.90
16479;DHT22;8350;52.316;10.530;2024-03-02T13:19:30;15.90;99.90
16479;DHT22;8350;52.316;10.530;2024-03-02T13:21:57;15.70;99.90
16479;DHT22;8350;52.316;10.530;2024-03-02T13:24:24;15.50;99.90
16479;DHT22;8350;52.316;10.530;2024-03-02T13:27:00;15.50;99.90
16479;DHT22;8350;52.316;10.530;2024-03-02T13:29:29;15.50;99.90
16479;DHT22;8350;52.316;10.530;2024-03-02T13:31:58;15.50;99.90
16479;DHT22;8350;52.316;10.530;2024-03-02T13:34:26;15.50;99.90
16479;DHT22;8350;52.316;10.530;2024-03-02T13:36:53;15.40;99.90
16479;DHT22;8350;52.316;10.530;2024-03-02T13:39:20;15.30;99.90
16479;DHT22;8350;52.316;10.530;2024-03-02T13:41:47;15.30;99.90
16479;DHT22;8350;52.316;10.530;2024-03-02T13:44:18;15.20;99.90
16479;DHT22;8350;52.316;10.530;2024-03-02T13:46:47;15.20;99.90
16479;DHT22;8350;52.316;10.530;2024-03-02T13:49:14;15.10;99.90
16479;DHT22;8350;52.316;10.530;2024-03-02T13:51:42;15.10;99.90
16479;DHT22;8350;52.316;10.530;2024-03-02T13:54:10;15.10;99.90
16479;DHT22;8350;52.316;10.530;2024-03-02T13:56:38;15.20;99.90
16479;DHT22;8350;52.316;10.530;2024-03-02T13:59:06;15.20;99.90
16479;DHT22;8350;52.316;10.530;2024-03-02T14:01:33;15.00;99.90
16479;DHT22;8350;52.316;10.530;2024-03-02T14:04:00;15.00;99.90
16479;DHT22;8350;52.316;10.530;2024-03-02T14:06:28;15.00;99.90
16479;DHT22;8350;52.316;10.530;2024-03-02T14:08:57;15.10;99.90
16479;DHT22;8350;52.316;10.530;2024-03-02T14:11:23;15.20;99.90
16479;DHT22;8350;52.316;10.530;2024-03-02T14:13:52;15.30;99.90
16479;DHT22;8350;52.316;10.530;2024-03-02T14:16:22;15.40;99.90
16479;DHT22;8350;52.316;10.530;2024-03-02T14:18:51;15.50;99.90
16479;DHT22;8350;52.316;10.530;2024-03-02T14:21:18;15.40;99.90
16479;DHT22;8350;52.316;10.530;2024-03-02T14:23:45;15.30;99.90
16479;DHT22;8350;52.316;10.530;2024-03-02T14:26:16;15.30;99.90
16479;DHT22;8350;52.316;10.530;2024-03-02T14:28:43;15.30;99.90
16479;DHT22;8350;52.316;10.530;2024-03-02T14:31:12;15.30;99.90
16479;DHT22;8350;52.316;10.530;2024-03-02T14:33:39;15.50;99.90
16479;DHT22;8350;52.316;10.530;2024-03-02T14:36:08;15.60;99.90
16479;DHT22;8350;52.316;10.530;2024-03-02T14:38:36;15.60;99.90
16479;DHT22;8350;52.316;10.530;2024-03-02T14:41:04;15.50;99.90
16479;DHT22;8350;52.316;10.530;2024-03-02T14:43:32;15.30;99.90
16479;DHT22;8350;52.316;10.530;2024-03-02T14:46:01;15.30;99.90
16479;DHT22;8350;52.316;10.530;2024-03-02T14:48:28;15.30;99.90
16479;DHT22;8350;52.316;10.530;2024-03-02T14:50:57;15.20;99.90
16479;DHT22;8350;52.316;10.530;2024-03-02T14:53:24;15.20;99.90
16479;DHT22;8350;52.316;10.530;2024-03-02T14:55:51;15.10;99.90
16479;DHT22;8350;52.316;10.530;2024-03-02T14:58:18;15.10;99.90
16479;DHT22;8350;52.316;10.530;2024-03-02T15:00:49;15.10;99.90
16479;DHT22;8350;52.316;10.530;2024-03-02T15:03:15;15.20;99.90
16479;DHT22;8350;52.316;10.530;2024-03-02T15:05:42;15.10;99.90
16479;DHT22;8350;52.316;10.530;2024-03-02T15:08:10;15.10;99.90
16479;DHT22;8350;52.316;10.530;2024-03-02T15:10:37;15.10;99.90
16479;DHT22;8350;52.316;10.530;2024-03-02T15:13:04;15.10;99.90
16479;DHT22;8350;52.316;10.530;2024-03-02T15:15:30;15.00;99.90
16479;DHT22;8350;52.316;10.530;2024-03-02T15:17:59;15.00;99.90
16479;DHT22;8350;52.316;10.530;2024-03-02T15:20:26;15.00;99.90
16479;DHT22;8350;52.316;10.530;2024-03-02T15:22:52;15.00;99.90
16479;DHT22;8350;52.316;10.530;2024-03-02T15:25:19;14.90;99.90
16479;DHT22;8350;52.316;10.530;2024-03-02T15:27:56;14.80;99.90
16479;DHT22;8350;52.316;10.530;2024-03-02T15:30:22;14.80;99.90
16479;DHT22;8350;52.316;10.530;2024-03-02T15:32:52;14.80;99.90
16479;DHT22;8350;52.316;10.530;2024-03-02T15:35:21;14.70;99.90
16479;DHT22;8350;52.316;10.530;2024-03-02T15:37:47;14.70;99.90
16479;DHT22;8350;52.316;10.530;2024-03-02T15:40:14;14.60;99.90
16479;DHT22;8350;52.316;10.530;2024-03-02T15:42:41;14.60;99.90
16479;DHT22;8350;52.316;10.530;2024-03-02T15:45:09;14.60;99.90
16479;DHT22;8350;52.316;10.530;2024-03-02T15:47:37;14.50;99.90